Main page
METAR-TAF:

METAR-TAF

Airports :

Vitoria, Spain

Vitoria Airport

latitude: 42-53N, longitude: 002-43W, elevation: 513 m

Current weather observation

The report was made 34 minutes ago, at 03:00 UTC
Wind 5 kt from the North, varying between North/Northwest and North/Northeast
Temperature 17°C
Humidity 94%
Pressure 1011 hPa
Visibility 10 km or more
Few clouds at a height of 5000 ft

METAR: LEVT 260300Z 35005KT 330V030 9999 FEW050 17/16 Q1011

Time: 05:34 (03:34 UTC)


TAF: missing

Weather observations and forecasts of more than 4000 airports (METAR and TAF reports).

The available stations are represented by yellow and red dots on the map.

Hover mouse over dot to see the name of the station.

Then click to see weather observations and forecasts.

To change the map : click on the green buttons with a black cross to zoom in, on the green button with a dash to zoom out, or on the green arrows for adjacent maps.


METAR-TAF: